sensor_id;sensor_type;location;lat;lon;timestamp;P1;durP1;ratioP1;P2;durP2;ratioP2
30553;SDS011;17335;50.720;7.452;2024-01-25T00:01:34;24.55;;;4.03;;
30553;SDS011;17335;50.720;7.452;2024-01-25T00:04:01;21.55;;;4.75;;
30553;SDS011;17335;50.720;7.452;2024-01-25T00:06:28;27.60;;;4.88;;
30553;SDS011;17335;50.720;7.452;2024-01-25T00:08:55;29.20;;;4.40;;
30553;SDS011;17335;50.720;7.452;2024-01-25T00:11:22;39.35;;;5.28;;
30553;SDS011;17335;50.720;7.452;2024-01-25T00:13:48;25.88;;;4.40;;
30553;SDS011;17335;50.720;7.452;2024-01-25T00:16:16;26.45;;;4.95;;
30553;SDS011;17335;50.720;7.452;2024-01-25T00:18:43;23.85;;;3.97;;
30553;SDS011;17335;50.720;7.452;2024-01-25T00:21:09;36.70;;;4.97;;
30553;SDS011;17335;50.720;7.452;2024-01-25T00:23:36;21.95;;;4.47;;
30553;SDS011;17335;50.720;7.452;2024-01-25T00:26:02;30.05;;;4.93;;
30553;SDS011;17335;50.720;7.452;2024-01-25T00:28:29;30.45;;;4.70;;
30553;SDS011;17335;50.720;7.452;2024-01-25T00:30:56;26.77;;;4.35;;
30553;SDS011;17335;50.720;7.452;2024-01-25T00:33:22;21.30;;;3.70;;
30553;SDS011;17335;50.720;7.452;2024-01-25T00:35:49;26.58;;;4.32;;
30553;SDS011;17335;50.720;7.452;2024-01-25T00:38:16;30.17;;;5.53;;
30553;SDS011;17335;50.720;7.452;2024-01-25T00:40:42;31.08;;;4.53;;
30553;SDS011;17335;50.720;7.452;2024-01-25T00:43:09;27.60;;;4.47;;
30553;SDS011;17335;50.720;7.452;2024-01-25T00:45:36;22.67;;;4.28;;
30553;SDS011;17335;50.720;7.452;2024-01-25T00:48:03;30.33;;;4.97;;
30553;SDS011;17335;50.720;7.452;2024-01-25T00:50:30;24.73;;;4.18;;
30553;SDS011;17335;50.720;7.452;2024-01-25T00:52:57;31.85;;;4.70;;
30553;SDS011;17335;50.720;7.452;2024-01-25T00:55:24;28.80;;;4.47;;
30553;SDS011;17335;50.720;7.452;2024-01-25T00:57:51;32.03;;;4.75;;
30553;SDS011;17335;50.720;7.452;2024-01-25T01:00:18;33.28;;;4.63;;
30553;SDS011;17335;50.720;7.452;2024-01-25T01:02:47;26.08;;;4.10;;
30553;SDS011;17335;50.720;7.452;2024-01-25T01:05:14;28.38;;;4.72;;
30553;SDS011;17335;50.720;7.452;2024-01-25T01:07:41;21.85;;;4.03;;
30553;SDS011;17335;50.720;7.452;2024-01-25T01:10:08;33.33;;;4.45;;
30553;SDS011;17335;50.720;7.452;2024-01-25T01:12:36;30.85;;;4.80;;
30553;SDS011;17335;50.720;7.452;2024-01-25T01:15:03;27.92;;;4.78;;
30553;SDS011;17335;50.720;7.452;2024-01-25T01:17:30;22.42;;;4.05;;
30553;SDS011;17335;50.720;7.452;2024-01-25T01:19:58;29.92;;;4.35;;
30553;SDS011;17335;50.720;7.452;2024-01-25T01:22:24;36.60;;;5.03;;
30553;SDS011;17335;50.720;7.452;2024-01-25T01:24:51;36.33;;;4.68;;
30553;SDS011;17335;50.720;7.452;2024-01-25T01:27:18;35.35;;;4.20;;
30553;SDS011;17335;50.720;7.452;2024-01-25T01:29:46;37.00;;;5.07;;
30553;SDS011;17335;50.720;7.452;2024-01-25T01:32:13;30.38;;;5.18;;
30553;SDS011;17335;50.720;7.452;2024-01-25T01:34:39;31.83;;;5.03;;
30553;SDS011;17335;50.720;7.452;2024-01-25T01:37:06;22.70;;;4.20;;
30553;SDS011;17335;50.720;7.452;2024-01-25T01:39:32;37.53;;;6.05;;
30553;SDS011;17335;50.720;7.452;2024-01-25T01:41:59;28.42;;;3.88;;
30553;SDS011;17335;50.720;7.452;2024-01-25T01:44:26;24.05;;;5.53;;
30553;SDS011;17335;50.720;7.452;2024-01-25T01:46:52;33.58;;;4.97;;
30553;SDS011;17335;50.720;7.452;2024-01-25T01:49:21;30.05;;;4.18;;
30553;SDS011;17335;50.720;7.452;2024-01-25T01:51:48;39.85;;;5.10;;
30553;SDS011;17335;50.720;7.452;2024-01-25T01:54:15;35.85;;;4.30;;
30553;SDS011;17335;50.720;7.452;2024-01-25T01:56:42;30.77;;;4.95;;
30553;SDS011;17335;50.720;7.452;2024-01-25T01:59:10;26.23;;;4.63;;
30553;SDS011;17335;50.720;7.452;2024-01-25T02:01:39;35.85;;;6.40;;
30553;SDS011;17335;50.720;7.452;2024-01-25T02:04:05;22.50;;;4.07;;
30553;SDS011;17335;50.720;7.452;2024-01-25T02:06:33;34.17;;;3.97;;
30553;SDS011;17335;50.720;7.452;2024-01-25T02:09:00;37.60;;;5.20;;
30553;SDS011;17335;50.720;7.452;2024-01-25T02:11:27;33.55;;;4.43;;
30553;SDS011;17335;50.720;7.452;2024-01-25T02:13:55;31.00;;;4.38;;
30553;SDS011;17335;50.720;7.452;2024-01-25T02:16:22;28.77;;;4.18;;
30553;SDS011;17335;50.720;7.452;2024-01-25T02:18:49;24.77;;;4.70;;
30553;SDS011;17335;50.720;7.452;2024-01-25T02:21:16;38.30;;;4.28;;
30553;SDS011;17335;50.720;7.452;2024-01-25T02:23:43;26.88;;;4.13;;
30553;SDS011;17335;50.720;7.452;2024-01-25T02:26:09;43.47;;;4.47;;
30553;SDS011;17335;50.720;7.452;2024-01-25T02:28:36;29.25;;;3.83;;
30553;SDS011;17335;50.720;7.452;2024-01-25T02:31:02;29.23;;;4.40;;
30553;SDS011;17335;50.720;7.452;2024-01-25T02:33:29;40.03;;;5.75;;
30553;SDS011;17335;50.720;7.452;2024-01-25T02:35:56;26.75;;;3.75;;
30553;SDS011;17335;50.720;7.452;2024-01-25T02:38:23;30.65;;;4.82;;
30553;SDS011;17335;50.720;7.452;2024-01-25T02:40:50;33.97;;;4.63;;
30553;SDS011;17335;50.720;7.452;2024-01-25T02:43:17;19.02;;;3.90;;
30553;SDS011;17335;50.720;7.452;2024-01-25T02:45:44;29.52;;;5.15;;
30553;SDS011;17335;50.720;7.452;2024-01-25T02:48:10;32.63;;;4.70;;
30553;SDS011;17335;50.720;7.452;2024-01-25T02:50:37;36.65;;;4.70;;
30553;SDS011;17335;50.720;7.452;2024-01-25T02:53:04;29.88;;;4.07;;
30553;SDS011;17335;50.720;7.452;2024-01-25T02:55:31;32.65;;;4.13;;
30553;SDS011;17335;50.720;7.452;2024-01-25T02:57:57;33.90;;;5.45;;
30553;SDS011;17335;50.720;7.452;2024-01-25T03:00:24;38.28;;;5.30;;
30553;SDS011;17335;50.720;7.452;2024-01-25T03:02:50;29.45;;;5.30;;
30553;SDS011;17335;50.720;7.452;2024-01-25T03:05:17;29.27;;;4.03;;
30553;SDS011;17335;50.720;7.452;2024-01-25T03:07:44;27.10;;;4.63;;
30553;SDS011;17335;50.720;7.452;2024-01-25T03:10:12;35.97;;;5.55;;
30553;SDS011;17335;50.720;7.452;2024-01-25T03:12:39;22.58;;;5.03;;
30553;SDS011;17335;50.720;7.452;2024-01-25T03:15:06;26.23;;;4.15;;
30553;SDS011;17335;50.720;7.452;2024-01-25T03:17:33;32.10;;;5.50;;
30553;SDS011;17335;50.720;7.452;2024-01-25T03:20:00;29.67;;;5.40;;
30553;SDS011;17335;50.720;7.452;2024-01-25T03:22:27;32.15;;;4.38;;
30553;SDS011;17335;50.720;7.452;2024-01-25T03:24:53;37.17;;;5.00;;
30553;SDS011;17335;50.720;7.452;2024-01-25T03:27:20;24.15;;;4.70;;
30553;SDS011;17335;50.720;7.452;2024-01-25T03:29:46;25.13;;;4.85;;
30553;SDS011;17335;50.720;7.452;2024-01-25T03:32:13;33.58;;;5.80;;
30553;SDS011;17335;50.720;7.452;2024-01-25T03:34:39;20.05;;;4.28;;
30553;SDS011;17335;50.720;7.452;2024-01-25T03:37:06;46.63;;;4.72;;
30553;SDS011;17335;50.720;7.452;2024-01-25T03:39:33;35.50;;;4.20;;
30553;SDS011;17335;50.720;7.452;2024-01-25T03:42:00;20.88;;;4.60;;
30553;SDS011;17335;50.720;7.452;2024-01-25T03:44:26;28.20;;;5.43;;
30553;SDS011;17335;50.720;7.452;2024-01-25T03:46:53;24.52;;;4.65;;
30553;SDS011;17335;50.720;7.452;2024-01-25T03:49:19;32.63;;;6.95;;
30553;SDS011;17335;50.720;7.452;2024-01-25T03:51:49;29.70;;;5.00;;
30553;SDS011;17335;50.720;7.452;2024-01-25T03:54:16;31.55;;;4.65;;
30553;SDS011;17335;50.720;7.452;2024-01-25T03:56:43;37.85;;;4.95;;
30553;SDS011;17335;50.720;7.452;2024-01-25T03:59:09;32.38;;;5.20;;
30553;SDS011;17335;50.720;7.452;2024-01-25T04:01:42;33.35;;;6.07;;
30553;SDS011;17335;50.720;7.452;2024-01-25T04:04:10;40.75;;;5.85;;
30553;SDS011;17335;50.720;7.452;2024-01-25T04:06:38;45.13;;;5.55;;
30553;SDS011;17335;50.720;7.452;2024-01-25T04:09:07;31.70;;;5.68;;
30553;SDS011;17335;50.720;7.452;2024-01-25T04:11:36;34.53;;;5.63;;
30553;SDS011;17335;50.720;7.452;2024-01-25T04:14:03;46.08;;;5.32;;
30553;SDS011;17335;50.720;7.452;2024-01-25T04:16:32;28.10;;;4.75;;
30553;SDS011;17335;50.720;7.452;2024-01-25T04:18:59;34.97;;;5.40;;
30553;SDS011;17335;50.720;7.452;2024-01-25T04:21:26;52.63;;;6.28;;
30553;SDS011;17335;50.720;7.452;2024-01-25T04:23:53;52.85;;;6.90;;
30553;SDS011;17335;50.720;7.452;2024-01-25T04:26:20;29.48;;;5.55;;
30553;SDS011;17335;50.720;7.452;2024-01-25T04:28:47;31.45;;;5.30;;
30553;SDS011;17335;50.720;7.452;2024-01-25T04:31:13;32.38;;;4.60;;
30553;SDS011;17335;50.720;7.452;2024-01-25T04:33:39;35.75;;;5.35;;
30553;SDS011;17335;50.720;7.452;2024-01-25T04:36:12;42.80;;;6.43;;
30553;SDS011;17335;50.720;7.452;2024-01-25T04:38:38;42.25;;;6.68;;
30553;SDS011;17335;50.720;7.452;2024-01-25T04:41:05;35.03;;;4.82;;
30553;SDS011;17335;50.720;7.452;2024-01-25T04:43:35;24.75;;;5.88;;
30553;SDS011;17335;50.720;7.452;2024-01-25T04:46:05;38.38;;;5.47;;
30553;SDS011;17335;50.720;7.452;2024-01-25T04:48:31;34.58;;;6.07;;
30553;SDS011;17335;50.720;7.452;2024-01-25T04:50:59;51.42;;;5.75;;
30553;SDS011;17335;50.720;7.452;2024-01-25T04:53:26;38.33;;;5.55;;
30553;SDS011;17335;50.720;7.452;2024-01-25T04:55:55;32.53;;;5.13;;
30553;SDS011;17335;50.720;7.452;2024-01-25T04:58:22;31.83;;;4.30;;
30553;SDS011;17335;50.720;7.452;2024-01-25T05:00:49;44.10;;;6.30;;
30553;SDS011;17335;50.720;7.452;2024-01-25T05:03:18;21.08;;;4.63;;
30553;SDS011;17335;50.720;7.452;2024-01-25T05:05:45;29.88;;;6.05;;
30553;SDS011;17335;50.720;7.452;2024-01-25T05:08:12;29.88;;;6.05;;
30553;SDS011;17335;50.720;7.452;2024-01-25T05:10:38;43.67;;;6.15;;
30553;SDS011;17335;50.720;7.452;2024-01-25T05:13:05;26.90;;;4.82;;
30553;SDS011;17335;50.720;7.452;2024-01-25T05:15:31;29.98;;;4.93;;
30553;SDS011;17335;50.720;7.452;2024-01-25T05:17:58;37.92;;;5.32;;
30553;SDS011;17335;50.720;7.452;2024-01-25T05:20:25;32.60;;;6.40;;
30553;SDS011;17335;50.720;7.452;2024-01-25T05:22:58;41.88;;;5.93;;
30553;SDS011;17335;50.720;7.452;2024-01-25T05:25:25;34.33;;;4.70;;
30553;SDS011;17335;50.720;7.452;2024-01-25T05:27:58;32.30;;;5.63;;
30553;SDS011;17335;50.720;7.452;2024-01-25T05:30:25;34.17;;;6.00;;
30553;SDS011;17335;50.720;7.452;2024-01-25T05:32:51;40.92;;;6.57;;
30553;SDS011;17335;50.720;7.452;2024-01-25T05:35:20;37.58;;;6.00;;
30553;SDS011;17335;50.720;7.452;2024-01-25T05:37:47;27.73;;;4.90;;
30553;SDS011;17335;50.720;7.452;2024-01-25T05:40:14;32.55;;;7.03;;
30553;SDS011;17335;50.720;7.452;2024-01-25T05:42:40;48.78;;;8.00;;
30553;SDS011;17335;50.720;7.452;2024-01-25T05:45:07;32.38;;;6.60;;
30553;SDS011;17335;50.720;7.452;2024-01-25T05:47:35;34.20;;;5.93;;
30553;SDS011;17335;50.720;7.452;2024-01-25T05:50:02;45.67;;;7.75;;
30553;SDS011;17335;50.720;7.452;2024-01-25T05:52:30;31.98;;;5.90;;
30553;SDS011;17335;50.720;7.452;2024-01-25T05:54:57;33.65;;;5.53;;
30553;SDS011;17335;50.720;7.452;2024-01-25T05:57:26;46.72;;;6.50;;
30553;SDS011;17335;50.720;7.452;2024-01-25T05:59:54;37.65;;;6.60;;
30553;SDS011;17335;50.720;7.452;2024-01-25T06:02:20;36.75;;;5.70;;
30553;SDS011;17335;50.720;7.452;2024-01-25T06:04:47;26.58;;;5.40;;
30553;SDS011;17335;50.720;7.452;2024-01-25T06:07:13;37.00;;;5.57;;
30553;SDS011;17335;50.720;7.452;2024-01-25T06:09:40;35.33;;;6.75;;
30553;SDS011;17335;50.720;7.452;2024-01-25T06:12:07;39.35;;;5.78;;
30553;SDS011;17335;50.720;7.452;2024-01-25T06:14:34;27.95;;;5.55;;
30553;SDS011;17335;50.720;7.452;2024-01-25T06:17:00;24.75;;;6.20;;
30553;SDS011;17335;50.720;7.452;2024-01-25T06:19:27;37.85;;;7.13;;
30553;SDS011;17335;50.720;7.452;2024-01-25T06:21:54;37.15;;;6.25;;
30553;SDS011;17335;50.720;7.452;2024-01-25T06:24:20;38.90;;;7.28;;
30553;SDS011;17335;50.720;7.452;2024-01-25T06:26:47;40.25;;;6.00;;
30553;SDS011;17335;50.720;7.452;2024-01-25T06:29:13;36.67;;;5.43;;
30553;SDS011;17335;50.720;7.452;2024-01-25T06:31:43;39.75;;;8.15;;
30553;SDS011;17335;50.720;7.452;2024-01-25T06:34:10;38.60;;;6.20;;
30553;SDS011;17335;50.720;7.452;2024-01-25T06:36:38;24.60;;;5.00;;
30553;SDS011;17335;50.720;7.452;2024-01-25T06:39:04;30.00;;;5.40;;
30553;SDS011;17335;50.720;7.452;2024-01-25T06:41:31;37.70;;;6.28;;
30553;SDS011;17335;50.720;7.452;2024-01-25T06:43:58;37.35;;;5.28;;
30553;SDS011;17335;50.720;7.452;2024-01-25T06:46:25;39.63;;;5.97;;
30553;SDS011;17335;50.720;7.452;2024-01-25T06:48:52;39.92;;;7.60;;
30553;SDS011;17335;50.720;7.452;2024-01-25T06:51:19;25.42;;;5.22;;
30553;SDS011;17335;50.720;7.452;2024-01-25T06:53:45;39.42;;;5.80;;
30553;SDS011;17335;50.720;7.452;2024-01-25T06:56:13;28.05;;;5.22;;
30553;SDS011;17335;50.720;7.452;2024-01-25T06:58:39;29.15;;;5.57;;
30553;SDS011;17335;50.720;7.452;2024-01-25T07:01:06;36.65;;;4.38;;
30553;SDS011;17335;50.720;7.452;2024-01-25T07:03:33;30.95;;;4.93;;
30553;SDS011;17335;50.720;7.452;2024-01-25T07:06:00;26.75;;;4.72;;
30553;SDS011;17335;50.720;7.452;2024-01-25T07:08:28;30.27;;;5.05;;
30553;SDS011;17335;50.720;7.452;2024-01-25T07:10:55;25.02;;;4.22;;
30553;SDS011;17335;50.720;7.452;2024-01-25T07:13:22;49.88;;;5.60;;
30553;SDS011;17335;50.720;7.452;2024-01-25T07:15:50;26.33;;;4.50;;
30553;SDS011;17335;50.720;7.452;2024-01-25T07:18:16;24.58;;;6.13;;
30553;SDS011;17335;50.720;7.452;2024-01-25T07:20:44;23.88;;;4.88;;
30553;SDS011;17335;50.720;7.452;2024-01-25T07:23:11;30.55;;;6.03;;
30553;SDS011;17335;50.720;7.452;2024-01-25T07:25:37;24.73;;;5.05;;
30553;SDS011;17335;50.720;7.452;2024-01-25T07:28:04;27.02;;;5.15;;
30553;SDS011;17335;50.720;7.452;2024-01-25T07:30:30;22.23;;;4.10;;
30553;SDS011;17335;50.720;7.452;2024-01-25T07:32:57;32.17;;;5.78;;
30553;SDS011;17335;50.720;7.452;2024-01-25T07:35:24;25.75;;;5.15;;
30553;SDS011;17335;50.720;7.452;2024-01-25T07:37:52;22.42;;;4.38;;
30553;SDS011;17335;50.720;7.452;2024-01-25T07:40:18;30.08;;;5.03;;
30553;SDS011;17335;50.720;7.452;2024-01-25T07:42:46;33.92;;;5.55;;
30553;SDS011;17335;50.720;7.452;2024-01-25T07:45:13;32.90;;;5.07;;
30553;SDS011;17335;50.720;7.452;2024-01-25T07:47:43;28.17;;;4.93;;
30553;SDS011;17335;50.720;7.452;2024-01-25T07:50:10;22.65;;;4.32;;
30553;SDS011;17335;50.720;7.452;2024-01-25T07:52:37;19.95;;;4.75;;
30553;SDS011;17335;50.720;7.452;2024-01-25T07:55:03;31.27;;;4.95;;
30553;SDS011;17335;50.720;7.452;2024-01-25T07:57:32;37.20;;;4.57;;
30553;SDS011;17335;50.720;7.452;2024-01-25T07:59:58;30.98;;;4.70;;
30553;SDS011;17335;50.720;7.452;2024-01-25T08:02:25;25.70;;;4.90;;
30553;SDS011;17335;50.720;7.452;2024-01-25T08:04:52;25.77;;;4.50;;
30553;SDS011;17335;50.720;7.452;2024-01-25T08:07:19;33.38;;;5.22;;
30553;SDS011;17335;50.720;7.452;2024-01-25T08:09:46;28.23;;;4.53;;
30553;SDS011;17335;50.720;7.452;2024-01-25T08:12:13;20.83;;;3.85;;
30553;SDS011;17335;50.720;7.452;2024-01-25T08:14:40;21.55;;;4.93;;
30553;SDS011;17335;50.720;7.452;2024-01-25T08:17:06;29.23;;;4.63;;
30553;SDS011;17335;50.720;7.452;2024-01-25T08:19:33;26.80;;;5.75;;
30553;SDS011;17335;50.720;7.452;2024-01-25T08:21:59;17.42;;;3.92;;
30553;SDS011;17335;50.720;7.452;2024-01-25T08:24:26;24.35;;;4.75;;
30553;SDS011;17335;50.720;7.452;2024-01-25T08:26:52;39.15;;;5.25;;
30553;SDS011;17335;50.720;7.452;2024-01-25T08:29:19;24.13;;;4.93;;
30553;SDS011;17335;50.720;7.452;2024-01-25T08:31:45;19.92;;;4.82;;
30553;SDS011;17335;50.720;7.452;2024-01-25T08:34:12;46.47;;;5.32;;
30553;SDS011;17335;50.720;7.452;2024-01-25T08:36:39;27.40;;;5.15;;
30553;SDS011;17335;50.720;7.452;2024-01-25T08:39:05;23.95;;;6.28;;
30553;SDS011;17335;50.720;7.452;2024-01-25T08:41:32;22.58;;;5.13;;
30553;SDS011;17335;50.720;7.452;2024-01-25T08:43:58;28.27;;;4.65;;
30553;SDS011;17335;50.720;7.452;2024-01-25T08:46:25;25.13;;;5.00;;
30553;SDS011;17335;50.720;7.452;2024-01-25T08:48:52;34.35;;;5.35;;
30553;SDS011;17335;50.720;7.452;2024-01-25T08:51:18;35.53;;;5.88;;
30553;SDS011;17335;50.720;7.452;2024-01-25T08:53:45;15.77;;;3.97;;
30553;SDS011;17335;50.720;7.452;2024-01-25T08:56:11;23.83;;;4.70;;
30553;SDS011;17335;50.720;7.452;2024-01-25T08:58:38;27.55;;;4.75;;
30553;SDS011;17335;50.720;7.452;2024-01-25T09:01:04;16.80;;;4.10;;
30553;SDS011;17335;50.720;7.452;2024-01-25T09:03:31;28.00;;;4.30;;
30553;SDS011;17335;50.720;7.452;2024-01-25T09:05:58;39.30;;;5.68;;
30553;SDS011;17335;50.720;7.452;2024-01-25T09:08:24;33.38;;;5.88;;
30553;SDS011;17335;50.720;7.452;2024-01-25T09:10:51;25.45;;;5.30;;
30553;SDS011;17335;50.720;7.452;2024-01-25T09:13:18;28.13;;;5.30;;
30553;SDS011;17335;50.720;7.452;2024-01-25T09:15:44;22.25;;;5.40;;
30553;SDS011;17335;50.720;7.452;2024-01-25T09:18:13;28.45;;;5.75;;
30553;SDS011;17335;50.720;7.452;2024-01-25T09:20:40;27.38;;;5.40;;
30553;SDS011;17335;50.720;7.452;2024-01-25T09:23:07;28.83;;;4.95;;
30553;SDS011;17335;50.720;7.452;2024-01-25T09:25:33;38.50;;;5.38;;
30553;SDS011;17335;50.720;7.452;2024-01-25T09:28:00;30.83;;;6.55;;
30553;SDS011;17335;50.720;7.452;2024-01-25T09:30:27;23.45;;;4.50;;
30553;SDS011;17335;50.720;7.452;2024-01-25T09:32:55;23.17;;;5.00;;
30553;SDS011;17335;50.720;7.452;2024-01-25T09:35:21;20.40;;;4.43;;
30553;SDS011;17335;50.720;7.452;2024-01-25T09:37:48;30.13;;;4.57;;
30553;SDS011;17335;50.720;7.452;2024-01-25T09:40:19;30.40;;;5.10;;
30553;SDS011;17335;50.720;7.452;2024-01-25T09:42:48;29.30;;;4.93;;
30553;SDS011;17335;50.720;7.452;2024-01-25T09:45:18;27.42;;;4.80;;
30553;SDS011;17335;50.720;7.452;2024-01-25T09:47:45;26.58;;;5.60;;
30553;SDS011;17335;50.720;7.452;2024-01-25T09:50:13;18.67;;;4.90;;
30553;SDS011;17335;50.720;7.452;2024-01-25T09:52:43;29.83;;;5.22;;
30553;SDS011;17335;50.720;7.452;2024-01-25T09:55:13;23.92;;;5.43;;
30553;SDS011;17335;50.720;7.452;2024-01-25T09:57:41;21.90;;;5.32;;
30553;SDS011;17335;50.720;7.452;2024-01-25T10:00:16;26.00;;;4.90;;
30553;SDS011;17335;50.720;7.452;2024-01-25T10:02:43;27.55;;;3.90;;
30553;SDS011;17335;50.720;7.452;2024-01-25T10:05:10;33.35;;;5.68;;
30553;SDS011;17335;50.720;7.452;2024-01-25T10:10:04;22.02;;;3.75;;
30553;SDS011;17335;50.720;7.452;2024-01-25T10:12:31;24.60;;;4.13;;
30553;SDS011;17335;50.720;7.452;2024-01-25T10:14:58;30.40;;;4.43;;
30553;SDS011;17335;50.720;7.452;2024-01-25T10:17:25;21.70;;;3.97;;
30553;SDS011;17335;50.720;7.452;2024-01-25T10:20:14;31.80;;;5.25;;
30553;SDS011;17335;50.720;7.452;2024-01-25T10:22:43;20.58;;;4.00;;
30553;SDS011;17335;50.720;7.452;2024-01-25T10:25:13;28.77;;;5.32;;
30553;SDS011;17335;50.720;7.452;2024-01-25T10:27:40;20.38;;;4.03;;
30553;SDS011;17335;50.720;7.452;2024-01-25T10:30:09;27.05;;;5.13;;
30553;SDS011;17335;50.720;7.452;2024-01-25T10:32:36;16.27;;;3.53;;
30553;SDS011;17335;50.720;7.452;2024-01-25T10:35:03;25.90;;;4.72;;
30553;SDS011;17335;50.720;7.452;2024-01-25T10:37:32;19.02;;;4.53;;
30553;SDS011;17335;50.720;7.452;2024-01-25T10:39:59;25.08;;;4.72;;
30553;SDS011;17335;50.720;7.452;2024-01-25T10:42:27;23.65;;;4.47;;
30553;SDS011;17335;50.720;7.452;2024-01-25T10:44:53;22.88;;;5.15;;
30553;SDS011;17335;50.720;7.452;2024-01-25T10:47:20;25.23;;;3.92;;
30553;SDS011;17335;50.720;7.452;2024-01-25T10:49:47;16.00;;;3.78;;
30553;SDS011;17335;50.720;7.452;2024-01-25T10:52:15;27.35;;;4.25;;
30553;SDS011;17335;50.720;7.452;2024-01-25T10:54:42;21.23;;;4.07;;
30553;SDS011;17335;50.720;7.452;2024-01-25T10:57:09;16.83;;;4.28;;
30553;SDS011;17335;50.720;7.452;2024-01-25T10:59:36;27.27;;;4.15;;
30553;SDS011;17335;50.720;7.452;2024-01-25T11:02:03;20.58;;;3.70;;
30553;SDS011;17335;50.720;7.452;2024-01-25T11:04:31;22.33;;;3.95;;
30553;SDS011;17335;50.720;7.452;2024-01-25T11:07:07;19.80;;;3.88;;
30553;SDS011;17335;50.720;7.452;2024-01-25T11:09:38;24.48;;;4.03;;
30553;SDS011;17335;50.720;7.452;2024-01-25T11:12:11;20.17;;;4.03;;
30553;SDS011;17335;50.720;7.452;2024-01-25T11:14:39;21.70;;;4.00;;
30553;SDS011;17335;50.720;7.452;2024-01-25T11:17:18;24.45;;;3.55;;
30553;SDS011;17335;50.720;7.452;2024-01-25T11:19:45;18.35;;;3.92;;
30553;SDS011;17335;50.720;7.452;2024-01-25T11:22:11;17.35;;;3.80;;
30553;SDS011;17335;50.720;7.452;2024-01-25T11:24:38;21.00;;;3.72;;
30553;SDS011;17335;50.720;7.452;2024-01-25T11:27:09;20.38;;;3.58;;
30553;SDS011;17335;50.720;7.452;2024-01-25T11:29:37;22.83;;;3.40;;
30553;SDS011;17335;50.720;7.452;2024-01-25T11:32:09;29.17;;;3.83;;
30553;SDS011;17335;50.720;7.452;2024-01-25T11:34:35;19.50;;;4.13;;
30553;SDS011;17335;50.720;7.452;2024-01-25T11:37:02;18.38;;;3.78;;
30553;SDS011;17335;50.720;7.452;2024-01-25T11:39:29;13.05;;;2.95;;
30553;SDS011;17335;50.720;7.452;2024-01-25T11:41:55;18.30;;;4.05;;
30553;SDS011;17335;50.720;7.452;2024-01-25T11:44:22;16.55;;;3.22;;
30553;SDS011;17335;50.720;7.452;2024-01-25T11:46:50;16.80;;;3.40;;
30553;SDS011;17335;50.720;7.452;2024-01-25T11:49:22;26.27;;;3.42;;
30553;SDS011;17335;50.720;7.452;2024-01-25T11:51:50;21.60;;;3.35;;
30553;SDS011;17335;50.720;7.452;2024-01-25T11:54:16;16.88;;;3.78;;
30553;SDS011;17335;50.720;7.452;2024-01-25T11:56:44;20.20;;;4.55;;
30553;SDS011;17335;50.720;7.452;2024-01-25T11:59:11;20.58;;;3.88;;
30553;SDS011;17335;50.720;7.452;2024-01-25T12:01:37;19.17;;;4.68;;
30553;SDS011;17335;50.720;7.452;2024-01-25T12:04:05;21.58;;;3.90;;
30553;SDS011;17335;50.720;7.452;2024-01-25T12:06:33;21.17;;;3.90;;
30553;SDS011;17335;50.720;7.452;2024-01-25T12:09:07;16.55;;;3.45;;
30553;SDS011;17335;50.720;7.452;2024-01-25T12:11:37;21.42;;;3.20;;
30553;SDS011;17335;50.720;7.452;2024-01-25T12:14:04;28.42;;;4.38;;
30553;SDS011;17335;50.720;7.452;2024-01-25T12:16:31;29.15;;;3.42;;
30553;SDS011;17335;50.720;7.452;2024-01-25T12:19:01;16.80;;;3.88;;
30553;SDS011;17335;50.720;7.452;2024-01-25T12:21:29;19.35;;;3.88;;
30553;SDS011;17335;50.720;7.452;2024-01-25T12:23:59;21.40;;;3.85;;
30553;SDS011;17335;50.720;7.452;2024-01-25T12:26:26;20.20;;;2.85;;
30553;SDS011;17335;50.720;7.452;2024-01-25T12:28:52;23.52;;;3.42;;
30553;SDS011;17335;50.720;7.452;2024-01-25T12:31:19;20.27;;;3.55;;
30553;SDS011;17335;50.720;7.452;2024-01-25T12:33:45;24.02;;;5.07;;
30553;SDS011;17335;50.720;7.452;2024-01-25T12:36:12;13.85;;;3.65;;
30553;SDS011;17335;50.720;7.452;2024-01-25T12:38:41;20.88;;;3.38;;
30553;SDS011;17335;50.720;7.452;2024-01-25T12:41:08;16.63;;;3.03;;
30553;SDS011;17335;50.720;7.452;2024-01-25T12:43:34;22.55;;;3.70;;
30553;SDS011;17335;50.720;7.452;2024-01-25T12:46:01;23.48;;;2.92;;
30553;SDS011;17335;50.720;7.452;2024-01-25T12:48:46;14.32;;;2.83;;
30553;SDS011;17335;50.720;7.452;2024-01-25T12:51:14;19.00;;;2.95;;
30553;SDS011;17335;50.720;7.452;2024-01-25T12:53:41;16.40;;;3.03;;
30553;SDS011;17335;50.720;7.452;2024-01-25T12:56:08;12.95;;;2.90;;
30553;SDS011;17335;50.720;7.452;2024-01-25T12:58:35;16.90;;;3.28;;
30553;SDS011;17335;50.720;7.452;2024-01-25T13:01:02;25.13;;;3.40;;
30553;SDS011;17335;50.720;7.452;2024-01-25T13:03:28;19.10;;;3.00;;
30553;SDS011;17335;50.720;7.452;2024-01-25T13:05:55;15.30;;;3.25;;
30553;SDS011;17335;50.720;7.452;2024-01-25T13:08:21;19.15;;;3.70;;
30553;SDS011;17335;50.720;7.452;2024-01-25T13:10:48;9.77;;;2.47;;
30553;SDS011;17335;50.720;7.452;2024-01-25T13:13:15;21.17;;;3.35;;
30553;SDS011;17335;50.720;7.452;2024-01-25T13:15:41;17.02;;;3.08;;
30553;SDS011;17335;50.720;7.452;2024-01-25T13:18:12;16.67;;;3.05;;
30553;SDS011;17335;50.720;7.452;2024-01-25T13:20:38;19.42;;;3.28;;
30553;SDS011;17335;50.720;7.452;2024-01-25T13:23:05;17.63;;;3.22;;
30553;SDS011;17335;50.720;7.452;2024-01-25T13:25:32;16.50;;;2.70;;
30553;SDS011;17335;50.720;7.452;2024-01-25T13:27:59;11.38;;;2.50;;
30553;SDS011;17335;50.720;7.452;2024-01-25T13:30:25;23.17;;;3.03;;
30553;SDS011;17335;50.720;7.452;2024-01-25T13:32:52;16.27;;;3.10;;
30553;SDS011;17335;50.720;7.452;2024-01-25T13:35:18;15.10;;;2.92;;
30553;SDS011;17335;50.720;7.452;2024-01-25T13:37:45;23.48;;;3.03;;
30553;SDS011;17335;50.720;7.452;2024-01-25T13:40:11;20.92;;;3.20;;
30553;SDS011;17335;50.720;7.452;2024-01-25T13:42:38;15.93;;;2.45;;
30553;SDS011;17335;50.720;7.452;2024-01-25T13:45:06;19.02;;;3.10;;
30553;SDS011;17335;50.720;7.452;2024-01-25T13:47:33;16.58;;;3.50;;
30553;SDS011;17335;50.720;7.452;2024-01-25T13:49:59;17.80;;;2.90;;
30553;SDS011;17335;50.720;7.452;2024-01-25T13:52:26;14.85;;;4.22;;
30553;SDS011;17335;50.720;7.452;2024-01-25T13:54:52;19.45;;;3.50;;
30553;SDS011;17335;50.720;7.452;2024-01-25T13:57:19;14.77;;;3.25;;
30553;SDS011;17335;50.720;7.452;2024-01-25T13:59:49;13.02;;;3.33;;
30553;SDS011;17335;50.720;7.452;2024-01-25T14:02:17;12.90;;;3.58;;
30553;SDS011;17335;50.720;7.452;2024-01-25T14:04:43;25.48;;;3.47;;
30553;SDS011;17335;50.720;7.452;2024-01-25T14:07:10;9.55;;;2.42;;
30553;SDS011;17335;50.720;7.452;2024-01-25T14:09:37;19.65;;;3.42;;
30553;SDS011;17335;50.720;7.452;2024-01-25T14:12:04;16.10;;;3.45;;
30553;SDS011;17335;50.720;7.452;2024-01-25T14:14:31;19.40;;;2.55;;
30553;SDS011;17335;50.720;7.452;2024-01-25T14:16:58;19.67;;;3.63;;
30553;SDS011;17335;50.720;7.452;2024-01-25T14:19:25;18.73;;;3.03;;
30553;SDS011;17335;50.720;7.452;2024-01-25T14:21:55;30.55;;;3.97;;
30553;SDS011;17335;50.720;7.452;2024-01-25T14:24:41;13.40;;;3.05;;
30553;SDS011;17335;50.720;7.452;2024-01-25T14:27:08;13.13;;;3.75;;
30553;SDS011;17335;50.720;7.452;2024-01-25T14:29:35;22.65;;;4.90;;
30553;SDS011;17335;50.720;7.452;2024-01-25T14:32:01;10.00;;;3.75;;
30553;SDS011;17335;50.720;7.452;2024-01-25T14:34:29;18.75;;;3.75;;
30553;SDS011;17335;50.720;7.452;2024-01-25T14:36:55;25.60;;;4.95;;
30553;SDS011;17335;50.720;7.452;2024-01-25T14:39:22;26.88;;;5.70;;